This is the latest recevied weather packets stored in our database for station/object VE2JJ-13. If no packets are shown the sender has not sent any weather packets the latest 1 day(s).
| Time | Temp. | Humidity | Pressure | Rain* | Wind** | Luminosity | Snow |
|---|---|---|---|---|---|---|---|
| 1778032409 | 13.33° C | 70% | 999.4 hPa | 0 mm | - | - | - |
| 1778031779 | 13.33° C | 69% | 999.1 hPa | 0 mm | - | - | - |
| 1778031178 | 13.89° C | 71% | 999 hPa | 0 mm | - | - | - |
| 1778030880 | 13.89° C | 71% | 998.9 hPa | 0 mm | - | - | - |
| 1778030552 | 13.89° C | 70% | 998.9 hPa | 0 mm | - | - | - |
| 1778030248 | 14.44° C | 69% | 998.9 hPa | 0 mm | - | - | - |
| 1778029950 | 15° C | 67% | 998.5 hPa | 0 mm | - | - | - |
| 1778028690 | 16.67° C | 57% | 997.8 hPa | 0 mm | - | - | - |
| 1778028388 | 16.67° C | 57% | 997.8 hPa | 0 mm | - | - | - |
| 1778028089 | 16.67° C | 58% | 997.8 hPa | 0 mm | - | - | - |
| 1778027788 | 17.22° C | 57% | 997.4 hPa | 0 mm | - | - | - |
| 1778027460 | 17.22° C | 57% | 997.4 hPa | 0 mm | - | - | - |
| 1778027158 | 17.22° C | 57% | 997.2 hPa | 0 mm | - | - | - |
| 1778026858 | 17.22° C | 57% | 997.2 hPa | 0 mm | - | - | - |
| 1778026559 | 17.22° C | 56% | 996.9 hPa | 0 mm | - | - | - |
| 1778025959 | 17.78° C | 55% | 996.9 hPa | 0 mm | - | - | - |
| 1778025628 | 17.78° C | 55% | 996.7 hPa | 0 mm | - | - | - |
| 1778025298 | 17.78° C | 55% | 996.7 hPa | 0 mm | - | - | - |
| 1778022268 | 18.89° C | 58% | 995.8 hPa | 0 mm | - | - | - |
| 1778021339 | 19.44° C | 58% | 995.4 hPa | 0 mm | - | - | - |
| 1778017919 | 20.56° C | 58% | 994.4 hPa | 0 mm | - | - | - |
| 1778017619 | 20.56° C | 58% | 994.4 hPa | 0 mm | - | - | - |
| 1778017290 | 20.56° C | 58% | 994.4 hPa | 0 mm | - | - | - |
| 1778016390 | 20.56° C | 58% | 994 hPa | 0 mm | - | - | - |
| 1778015789 | 21.11° C | 58% | 993.6 hPa | 0 mm | - | - | - |
* Rain latest hour (hover to see other rain measurements)
** Current wind speed in m/s (hover to see current wind gust speed)